sensor_id;sensor_type;location;lat;lon;timestamp;pressure;altitude;pressure_sealevel;temperature;humidity
18819;BME280;9537;45.594;9.294;2023-06-24T00:00:51;99721.13;;;25.57;32.77
18819;BME280;9537;45.594;9.294;2023-06-24T00:01:53;99722.75;;;25.48;32.94
18819;BME280;9537;45.594;9.294;2023-06-24T00:02:54;99724.38;;;25.49;32.84
18819;BME280;9537;45.594;9.294;2023-06-24T00:03:56;99724.09;;;25.50;32.93
18819;BME280;9537;45.594;9.294;2023-06-24T00:04:57;99717.88;;;25.50;32.66
18819;BME280;9537;45.594;9.294;2023-06-24T00:06:00;99720.84;;;25.43;33.03
18819;BME280;9537;45.594;9.294;2023-06-24T00:07:03;99710.00;;;25.38;33.05
18819;BME280;9537;45.594;9.294;2023-06-24T00:08:05;99724.91;;;25.35;33.04
18819;BME280;9537;45.594;9.294;2023-06-24T00:09:07;99717.06;;;25.34;33.19
18819;BME280;9537;45.594;9.294;2023-06-24T00:10:09;99722.72;;;25.32;33.33
18819;BME280;9537;45.594;9.294;2023-06-24T00:11:10;99721.09;;;25.26;33.41
18819;BME280;9537;45.594;9.294;2023-06-24T00:12:11;99726.50;;;25.26;33.14
18819;BME280;9537;45.594;9.294;2023-06-24T00:13:19;99724.63;;;25.27;33.17
18819;BME280;9537;45.594;9.294;2023-06-24T00:14:22;99723.28;;;25.24;33.48
18819;BME280;9537;45.594;9.294;2023-06-24T00:15:24;99718.66;;;25.20;33.47
18819;BME280;9537;45.594;9.294;2023-06-24T00:16:26;99720.81;;;25.17;33.79
18819;BME280;9537;45.594;9.294;2023-06-24T00:17:27;99729.44;;;25.14;33.74
18819;BME280;9537;45.594;9.294;2023-06-24T00:18:29;99730.25;;;25.15;33.69
18819;BME280;9537;45.594;9.294;2023-06-24T00:19:30;99731.59;;;25.12;33.75
18819;BME280;9537;45.594;9.294;2023-06-24T00:20:32;99729.94;;;25.06;34.74
18819;BME280;9537;45.594;9.294;2023-06-24T00:21:33;99726.19;;;25.07;35.00
18819;BME280;9537;45.594;9.294;2023-06-24T00:22:37;99724.78;;;25.00;35.20
18819;BME280;9537;45.594;9.294;2023-06-24T00:23:44;99730.47;;;24.98;35.17
18819;BME280;9537;45.594;9.294;2023-06-24T00:24:49;99735.31;;;24.91;34.91
18819;BME280;9537;45.594;9.294;2023-06-24T00:25:50;99729.91;;;24.91;35.35
18819;BME280;9537;45.594;9.294;2023-06-24T00:26:52;99733.13;;;24.88;35.37
18819;BME280;9537;45.594;9.294;2023-06-24T00:27:53;99734.50;;;24.90;35.50
18819;BME280;9537;45.594;9.294;2023-06-24T00:28:54;99740.16;;;24.89;35.28
18819;BME280;9537;45.594;9.294;2023-06-24T00:29:56;99735.81;;;24.83;35.82
18819;BME280;9537;45.594;9.294;2023-06-24T00:30:58;99739.06;;;24.85;35.65
18819;BME280;9537;45.594;9.294;2023-06-24T00:31:59;99732.31;;;24.82;35.80
18819;BME280;9537;45.594;9.294;2023-06-24T00:33:01;99739.84;;;24.80;36.23
18819;BME280;9537;45.594;9.294;2023-06-24T00:34:03;99733.66;;;24.80;36.18
18819;BME280;9537;45.594;9.294;2023-06-24T00:35:05;99735.78;;;24.78;35.89
18819;BME280;9537;45.594;9.294;2023-06-24T00:36:06;99739.59;;;24.77;35.82
18819;BME280;9537;45.594;9.294;2023-06-24T00:37:08;99745.25;;;24.80;35.72
18819;BME280;9537;45.594;9.294;2023-06-24T00:38:09;99733.63;;;24.75;36.91
18819;BME280;9537;45.594;9.294;2023-06-24T00:39:11;99736.84;;;24.71;37.10
18819;BME280;9537;45.594;9.294;2023-06-24T00:40:11;99735.78;;;24.67;37.37
18819;BME280;9537;45.594;9.294;2023-06-24T00:41:16;99738.16;;;24.59;38.32
18819;BME280;9537;45.594;9.294;2023-06-24T00:42:18;99738.66;;;24.50;38.70
18819;BME280;9537;45.594;9.294;2023-06-24T00:43:19;99729.47;;;24.52;38.80
18819;BME280;9537;45.594;9.294;2023-06-24T00:44:20;99728.91;;;24.44;38.68
18819;BME280;9537;45.594;9.294;2023-06-24T00:45:24;99733.72;;;24.42;39.09
18819;BME280;9537;45.594;9.294;2023-06-24T00:46:25;99732.09;;;24.41;38.63
18819;BME280;9537;45.594;9.294;2023-06-24T00:47:26;99729.09;;;24.38;38.79
18819;BME280;9537;45.594;9.294;2023-06-24T00:48:28;99742.59;;;24.33;38.88
18819;BME280;9537;45.594;9.294;2023-06-24T00:49:32;99726.59;;;24.26;39.17
18819;BME280;9537;45.594;9.294;2023-06-24T00:50:32;99733.34;;;24.23;39.00
18819;BME280;9537;45.594;9.294;2023-06-24T00:51:37;99736.56;;;24.20;38.96
18819;BME280;9537;45.594;9.294;2023-06-24T00:52:40;99733.63;;;24.22;38.49
18819;BME280;9537;45.594;9.294;2023-06-24T00:53:43;99734.41;;;24.22;38.51
18819;BME280;9537;45.594;9.294;2023-06-24T00:54:43;99740.34;;;24.19;38.45
18819;BME280;9537;45.594;9.294;2023-06-24T00:55:45;99734.94;;;24.19;38.26
18819;BME280;9537;45.594;9.294;2023-06-24T00:56:46;99743.03;;;24.19;38.14
18819;BME280;9537;45.594;9.294;2023-06-24T00:57:50;99734.38;;;24.17;38.48
18819;BME280;9537;45.594;9.294;2023-06-24T00:58:52;99738.16;;;24.16;38.72
18819;BME280;9537;45.594;9.294;2023-06-24T00:59:54;99734.66;;;24.16;38.26
18819;BME280;9537;45.594;9.294;2023-06-24T01:00:58;99728.19;;;24.17;38.20
18819;BME280;9537;45.594;9.294;2023-06-24T01:02:01;99728.47;;;24.20;38.05
18819;BME280;9537;45.594;9.294;2023-06-24T01:03:04;99744.41;;;24.22;38.01
18819;BME280;9537;45.594;9.294;2023-06-24T01:04:06;99738.22;;;24.21;38.01
18819;BME280;9537;45.594;9.294;2023-06-24T01:05:08;99740.63;;;24.23;38.15
18819;BME280;9537;45.594;9.294;2023-06-24T01:06:11;99724.97;;;24.20;38.09
18819;BME280;9537;45.594;9.294;2023-06-24T01:07:14;99732.81;;;24.21;38.02
18819;BME280;9537;45.594;9.294;2023-06-24T01:08:17;99733.34;;;24.23;38.31
18819;BME280;9537;45.594;9.294;2023-06-24T01:09:20;99737.69;;;24.24;38.15
18819;BME280;9537;45.594;9.294;2023-06-24T01:10:23;99726.88;;;24.24;37.77
18819;BME280;9537;45.594;9.294;2023-06-24T01:11:24;99729.06;;;24.27;37.98
18819;BME280;9537;45.594;9.294;2023-06-24T01:12:26;99735.03;;;24.30;38.01
18819;BME280;9537;45.594;9.294;2023-06-24T01:13:27;99735.81;;;24.30;38.23
18819;BME280;9537;45.594;9.294;2023-06-24T01:14:28;99737.44;;;24.31;38.20
18819;BME280;9537;45.594;9.294;2023-06-24T01:15:29;99735.81;;;24.30;38.34
18819;BME280;9537;45.594;9.294;2023-06-24T01:16:42;99738.53;;;24.30;38.54
18819;BME280;9537;45.594;9.294;2023-06-24T01:17:53;99738.25;;;24.32;38.91
18819;BME280;9537;45.594;9.294;2023-06-24T01:18:59;99739.06;;;24.32;39.14
18819;BME280;9537;45.594;9.294;2023-06-24T01:20:08;99746.91;;;24.34;39.35
18819;BME280;9537;45.594;9.294;2023-06-24T01:21:21;99740.41;;;24.35;39.90
18819;BME280;9537;45.594;9.294;2023-06-24T01:22:48;99745.28;;;24.38;39.30
18819;BME280;9537;45.594;9.294;2023-06-24T01:24:14;99735.50;;;24.21;39.56
18819;BME280;9537;45.594;9.294;2023-06-24T01:25:32;99743.00;;;24.14;39.30
18819;BME280;9537;45.594;9.294;2023-06-24T01:27:02;99731.13;;;24.10;39.24
18819;BME280;9537;45.594;9.294;2023-06-24T01:28:41;99745.13;;;24.07;39.20
18819;BME280;9537;45.594;9.294;2023-06-24T01:30:15;99739.41;;;24.03;39.18
18819;BME280;9537;45.594;9.294;2023-06-24T01:31:31;99744.81;;;24.03;39.34
18819;BME280;9537;45.594;9.294;2023-06-24T01:32:40;99744.28;;;24.01;39.11
18819;BME280;9537;45.594;9.294;2023-06-24T01:33:46;99743.44;;;23.96;39.32
18819;BME280;9537;45.594;9.294;2023-06-24T01:34:55;99750.44;;;23.97;39.27
18819;BME280;9537;45.594;9.294;2023-06-24T01:36:00;99744.75;;;23.93;38.80
18819;BME280;9537;45.594;9.294;2023-06-24T01:37:08;99747.69;;;23.92;38.87
18819;BME280;9537;45.594;9.294;2023-06-24T01:38:18;99749.28;;;23.88;39.15
18819;BME280;9537;45.594;9.294;2023-06-24T01:39:22;99751.72;;;23.84;38.97
18819;BME280;9537;45.594;9.294;2023-06-24T01:40:27;99744.38;;;23.79;38.83
18819;BME280;9537;45.594;9.294;2023-06-24T01:41:32;99747.59;;;23.76;38.54
18819;BME280;9537;45.594;9.294;2023-06-24T01:42:38;99748.63;;;23.70;38.53
18819;BME280;9537;45.594;9.294;2023-06-24T01:43:42;99757.19;;;23.67;38.23
18819;BME280;9537;45.594;9.294;2023-06-24T01:44:47;99748.50;;;23.60;37.69
18819;BME280;9537;45.594;9.294;2023-06-24T01:45:51;99761.47;;;23.63;37.87
18819;BME280;9537;45.594;9.294;2023-06-24T01:46:57;99747.78;;;23.70;38.07
18819;BME280;9537;45.594;9.294;2023-06-24T01:48:00;99752.59;;;23.68;38.38
18819;BME280;9537;45.594;9.294;2023-06-24T01:49:04;99747.72;;;23.65;38.39
18819;BME280;9537;45.594;9.294;2023-06-24T01:50:10;99746.31;;;23.57;38.57
18819;BME280;9537;45.594;9.294;2023-06-24T01:51:16;99750.84;;;23.51;38.10
18819;BME280;9537;45.594;9.294;2023-06-24T01:52:20;99743.84;;;23.50;37.93
18819;BME280;9537;45.594;9.294;2023-06-24T01:53:23;99745.44;;;23.51;38.11
18819;BME280;9537;45.594;9.294;2023-06-24T01:54:26;99752.94;;;23.44;38.74
18819;BME280;9537;45.594;9.294;2023-06-24T01:55:31;99747.00;;;23.42;38.89
18819;BME280;9537;45.594;9.294;2023-06-24T01:56:33;99747.50;;;23.39;39.33
18819;BME280;9537;45.594;9.294;2023-06-24T01:57:40;99745.63;;;23.39;39.25
18819;BME280;9537;45.594;9.294;2023-06-24T01:58:43;99742.06;;;23.34;39.88
18819;BME280;9537;45.594;9.294;2023-06-24T01:59:46;99750.94;;;23.34;40.14
18819;BME280;9537;45.594;9.294;2023-06-24T02:00:49;99747.19;;;23.35;40.43
18819;BME280;9537;45.594;9.294;2023-06-24T02:01:52;99752.03;;;23.33;39.82
18819;BME280;9537;45.594;9.294;2023-06-24T02:02:55;99743.13;;;23.33;39.63
18819;BME280;9537;45.594;9.294;2023-06-24T02:03:59;99739.63;;;23.32;39.73
18819;BME280;9537;45.594;9.294;2023-06-24T02:05:01;99740.13;;;23.29;39.92
18819;BME280;9537;45.594;9.294;2023-06-24T02:06:04;99741.47;;;23.27;40.39
18819;BME280;9537;45.594;9.294;2023-06-24T02:07:08;99743.53;;;23.20;41.13
18819;BME280;9537;45.594;9.294;2023-06-24T02:08:11;99741.63;;;23.20;40.94
18819;BME280;9537;45.594;9.294;2023-06-24T02:09:16;99733.81;;;23.19;40.63
18819;BME280;9537;45.594;9.294;2023-06-24T02:10:20;99741.84;;;23.13;40.02
18819;BME280;9537;45.594;9.294;2023-06-24T02:11:23;99735.38;;;23.14;39.91
18819;BME280;9537;45.594;9.294;2023-06-24T02:12:28;99738.34;;;23.13;40.06
18819;BME280;9537;45.594;9.294;2023-06-24T02:13:29;99740.47;;;23.11;40.67
18819;BME280;9537;45.594;9.294;2023-06-24T02:14:33;99736.66;;;23.07;40.72
18819;BME280;9537;45.594;9.294;2023-06-24T02:15:35;99730.72;;;23.05;40.95
18819;BME280;9537;45.594;9.294;2023-06-24T02:16:40;99733.91;;;23.02;40.75
18819;BME280;9537;45.594;9.294;2023-06-24T02:17:43;99731.44;;;22.95;41.02
18819;BME280;9537;45.594;9.294;2023-06-24T02:18:47;99732.22;;;22.96;41.67
18819;BME280;9537;45.594;9.294;2023-06-24T02:19:49;99731.34;;;22.90;41.86
18819;BME280;9537;45.594;9.294;2023-06-24T02:20:51;99739.91;;;22.87;42.02
18819;BME280;9537;45.594;9.294;2023-06-24T02:21:54;99736.66;;;22.85;42.14
18819;BME280;9537;45.594;9.294;2023-06-24T02:22:58;99735.03;;;22.84;42.37
18819;BME280;9537;45.594;9.294;2023-06-24T02:23:59;99738.53;;;22.84;42.47
18819;BME280;9537;45.594;9.294;2023-06-24T02:25:02;99729.94;;;22.87;42.50
18819;BME280;9537;45.594;9.294;2023-06-24T02:26:06;99737.47;;;22.85;42.70
18819;BME280;9537;45.594;9.294;2023-06-24T02:27:09;99731.28;;;22.85;42.69
18819;BME280;9537;45.594;9.294;2023-06-24T02:28:12;99734.03;;;22.90;42.26
18819;BME280;9537;45.594;9.294;2023-06-24T02:29:14;99735.41;;;22.92;42.21
18819;BME280;9537;45.594;9.294;2023-06-24T02:30:16;99737.03;;;22.93;42.19
18819;BME280;9537;45.594;9.294;2023-06-24T02:31:18;99737.53;;;22.90;42.00
18819;BME280;9537;45.594;9.294;2023-06-24T02:32:18;99735.53;;;22.81;42.43
18819;BME280;9537;45.594;9.294;2023-06-24T02:33:20;99735.16;;;22.72;42.66
18819;BME280;9537;45.594;9.294;2023-06-24T02:34:23;99733.44;;;22.66;43.00
18819;BME280;9537;45.594;9.294;2023-06-24T02:35:25;99729.66;;;22.62;43.21
18819;BME280;9537;45.594;9.294;2023-06-24T02:36:26;99727.97;;;22.56;43.49
18819;BME280;9537;45.594;9.294;2023-06-24T02:37:28;99733.56;;;22.54;43.57
18819;BME280;9537;45.594;9.294;2023-06-24T02:38:29;99736.53;;;22.53;43.79
18819;BME280;9537;45.594;9.294;2023-06-24T02:39:30;99725.69;;;22.47;44.09
18819;BME280;9537;45.594;9.294;2023-06-24T02:40:31;99730.28;;;22.47;43.83
18819;BME280;9537;45.594;9.294;2023-06-24T02:41:33;99730.50;;;22.45;43.86
18819;BME280;9537;45.594;9.294;2023-06-24T02:42:34;99726.13;;;22.39;43.98
18819;BME280;9537;45.594;9.294;2023-06-24T02:43:36;99725.38;;;22.44;44.33
18819;BME280;9537;45.594;9.294;2023-06-24T02:44:38;99718.84;;;22.40;44.39
18819;BME280;9537;45.594;9.294;2023-06-24T02:45:40;99726.38;;;22.38;44.68
18819;BME280;9537;45.594;9.294;2023-06-24T02:46:42;99727.19;;;22.38;44.83
18819;BME280;9537;45.594;9.294;2023-06-24T02:47:45;99725.25;;;22.34;45.03
18819;BME280;9537;45.594;9.294;2023-06-24T02:48:48;99722.31;;;22.35;44.99
18819;BME280;9537;45.594;9.294;2023-06-24T02:49:53;99718.53;;;22.36;45.23
18819;BME280;9537;45.594;9.294;2023-06-24T02:50:57;99721.25;;;22.36;45.14
18819;BME280;9537;45.594;9.294;2023-06-24T02:52:00;99726.38;;;22.38;45.27
18819;BME280;9537;45.594;9.294;2023-06-24T02:54:03;99721.81;;;22.38;44.33
18819;BME280;9537;45.594;9.294;2023-06-24T02:55:05;99722.03;;;22.37;44.09
18819;BME280;9537;45.594;9.294;2023-06-24T02:56:08;99728.25;;;22.37;44.66
18819;BME280;9537;45.594;9.294;2023-06-24T02:57:09;99723.34;;;22.34;44.49
18819;BME280;9537;45.594;9.294;2023-06-24T02:58:12;99723.84;;;22.31;44.79
18819;BME280;9537;45.594;9.294;2023-06-24T02:59:13;99724.16;;;22.35;44.84
18819;BME280;9537;45.594;9.294;2023-06-24T03:00:16;99726.84;;;22.35;44.38
18819;BME280;9537;45.594;9.294;2023-06-24T03:01:18;99726.03;;;22.34;44.23
18819;BME280;9537;45.594;9.294;2023-06-24T03:02:25;99726.53;;;22.31;44.48
18819;BME280;9537;45.594;9.294;2023-06-24T03:03:26;99729.72;;;22.28;44.80
18819;BME280;9537;45.594;9.294;2023-06-24T03:04:29;99735.94;;;22.29;44.84
18819;BME280;9537;45.594;9.294;2023-06-24T03:05:32;99731.31;;;22.24;45.07
18819;BME280;9537;45.594;9.294;2023-06-24T03:06:35;99734.22;;;22.22;45.06
18819;BME280;9537;45.594;9.294;2023-06-24T03:07:37;99740.41;;;22.23;45.10
18819;BME280;9537;45.594;9.294;2023-06-24T03:08:39;99731.31;;;22.24;45.06
18819;BME280;9537;45.594;9.294;2023-06-24T03:09:40;99732.34;;;22.23;45.32
18819;BME280;9537;45.594;9.294;2023-06-24T03:10:42;99731.81;;;22.21;45.51
18819;BME280;9537;45.594;9.294;2023-06-24T03:11:43;99731.47;;;22.17;45.50
18819;BME280;9537;45.594;9.294;2023-06-24T03:12:45;99740.56;;;22.16;45.65
18819;BME280;9537;45.594;9.294;2023-06-24T03:13:47;99737.69;;;22.18;45.45
18819;BME280;9537;45.594;9.294;2023-06-24T03:14:49;99745.25;;;22.21;45.45
18819;BME280;9537;45.594;9.294;2023-06-24T03:15:50;99740.41;;;22.23;45.48
18819;BME280;9537;45.594;9.294;2023-06-24T03:16:52;99743.88;;;22.18;45.65
18819;BME280;9537;45.594;9.294;2023-06-24T03:17:52;99740.56;;;22.16;45.56
18819;BME280;9537;45.594;9.294;2023-06-24T03:18:54;99748.88;;;22.15;45.23
18819;BME280;9537;45.594;9.294;2023-06-24T03:19:55;99745.13;;;22.16;45.18
18819;BME280;9537;45.594;9.294;2023-06-24T03:20:58;99743.50;;;22.15;44.28
18819;BME280;9537;45.594;9.294;2023-06-24T03:21:59;99746.75;;;22.17;44.06
18819;BME280;9537;45.594;9.294;2023-06-24T03:23:01;99749.88;;;22.09;43.91
18819;BME280;9537;45.594;9.294;2023-06-24T03:24:01;99742.28;;;22.05;44.14
18819;BME280;9537;45.594;9.294;2023-06-24T03:25:04;99746.03;;;22.04;44.08
18819;BME280;9537;45.594;9.294;2023-06-24T03:26:04;99750.34;;;22.05;44.28
18819;BME280;9537;45.594;9.294;2023-06-24T03:27:06;99759.88;;;22.13;44.32
18819;BME280;9537;45.594;9.294;2023-06-24T03:28:07;99755.31;;;22.14;44.46
18819;BME280;9537;45.594;9.294;2023-06-24T03:29:08;99756.13;;;22.14;44.78
18819;BME280;9537;45.594;9.294;2023-06-24T03:30:11;99755.00;;;22.10;44.97
18819;BME280;9537;45.594;9.294;2023-06-24T03:31:15;99761.91;;;22.06;44.91
18819;BME280;9537;45.594;9.294;2023-06-24T03:32:15;99748.16;;;22.02;45.19
18819;BME280;9537;45.594;9.294;2023-06-24T03:33:17;99750.63;;;22.04;45.14
18819;BME280;9537;45.594;9.294;2023-06-24T03:34:18;99759.72;;;22.03;45.30
18819;BME280;9537;45.594;9.294;2023-06-24T03:35:20;99763.81;;;22.05;45.00
18819;BME280;9537;45.594;9.294;2023-06-24T03:36:24;99760.16;;;21.95;44.73
18819;BME280;9537;45.594;9.294;2023-06-24T03:37:25;99764.38;;;21.91;45.16
18819;BME280;9537;45.594;9.294;2023-06-24T03:38:26;99769.19;;;21.89;45.09
18819;BME280;9537;45.594;9.294;2023-06-24T03:39:28;99771.81;;;21.84;45.19
18819;BME280;9537;45.594;9.294;2023-06-24T03:40:29;99771.56;;;21.85;44.94
18819;BME280;9537;45.594;9.294;2023-06-24T03:41:31;99768.53;;;21.81;44.51
18819;BME280;9537;45.594;9.294;2023-06-24T03:42:33;99771.47;;;21.80;44.81
18819;BME280;9537;45.594;9.294;2023-06-24T03:43:35;99770.06;;;21.77;44.71
18819;BME280;9537;45.594;9.294;2023-06-24T03:44:35;99776.28;;;21.78;44.70
18819;BME280;9537;45.594;9.294;2023-06-24T03:45:37;99775.13;;;21.74;45.05
18819;BME280;9537;45.594;9.294;2023-06-24T03:46:38;99770.00;;;21.72;44.98
18819;BME280;9537;45.594;9.294;2023-06-24T03:47:39;99762.50;;;21.74;44.90
18819;BME280;9537;45.594;9.294;2023-06-24T03:48:42;99773.03;;;21.76;45.18
18819;BME280;9537;45.594;9.294;2023-06-24T03:49:43;99771.41;;;21.75;44.87
18819;BME280;9537;45.594;9.294;2023-06-24T03:50:45;99784.50;;;21.71;45.06
18819;BME280;9537;45.594;9.294;2023-06-24T03:51:47;99771.22;;;21.65;45.96
18819;BME280;9537;45.594;9.294;2023-06-24T03:52:49;99783.34;;;21.67;45.99
18819;BME280;9537;45.594;9.294;2023-06-24T03:53:49;99778.78;;;21.68;45.69
18819;BME280;9537;45.594;9.294;2023-06-24T03:54:52;99786.28;;;21.66;45.49
18819;BME280;9537;45.594;9.294;2023-06-24T03:55:53;99780.00;;;21.60;45.45
18819;BME280;9537;45.594;9.294;2023-06-24T03:56:55;99783.16;;;21.57;45.91
18819;BME280;9537;45.594;9.294;2023-06-24T03:57:55;99773.97;;;21.53;46.33
18819;BME280;9537;45.594;9.294;2023-06-24T03:58:57;99780.06;;;21.48;46.17
18819;BME280;9537;45.594;9.294;2023-06-24T03:59:58;99781.34;;;21.46;46.40
18819;BME280;9537;45.594;9.294;2023-06-24T04:01:01;99784.44;;;21.38;46.69
18819;BME280;9537;45.594;9.294;2023-06-24T04:02:02;99780.69;;;21.39;46.97
18819;BME280;9537;45.594;9.294;2023-06-24T04:03:08;99786.66;;;21.41;47.11
18819;BME280;9537;45.594;9.294;2023-06-24T04:04:08;99784.44;;;21.38;47.22
18819;BME280;9537;45.594;9.294;2023-06-24T04:05:10;99792.25;;;21.39;47.32
18819;BME280;9537;45.594;9.294;2023-06-24T04:06:11;99795.28;;;21.43;47.07
18819;BME280;9537;45.594;9.294;2023-06-24T04:07:14;99795.13;;;21.49;46.81
18819;BME280;9537;45.594;9.294;2023-06-24T04:08:15;99790.56;;;21.50;46.99
18819;BME280;9537;45.594;9.294;2023-06-24T04:09:17;99793.59;;;21.53;46.76
18819;BME280;9537;45.594;9.294;2023-06-24T04:10:18;99784.94;;;21.51;46.57
18819;BME280;9537;45.594;9.294;2023-06-24T04:11:20;99794.66;;;21.52;46.83
18819;BME280;9537;45.594;9.294;2023-06-24T04:12:21;99794.66;;;21.52;46.97
18819;BME280;9537;45.594;9.294;2023-06-24T04:13:22;99783.09;;;21.52;47.58
18819;BME280;9537;45.594;9.294;2023-06-24T04:14:23;99787.63;;;21.51;47.79
18819;BME280;9537;45.594;9.294;2023-06-24T04:15:25;99789.28;;;21.52;47.82
18819;BME280;9537;45.594;9.294;2023-06-24T04:16:26;99793.59;;;21.53;48.02
18819;BME280;9537;45.594;9.294;2023-06-24T04:17:27;99786.59;;;21.52;48.23
18819;BME280;9537;45.594;9.294;2023-06-24T04:18:28;99797.09;;;21.54;48.43
18819;BME280;9537;45.594;9.294;2023-06-24T04:19:30;99790.31;;;21.51;48.59
18819;BME280;9537;45.594;9.294;2023-06-24T04:20:31;99790.31;;;21.51;48.40
18819;BME280;9537;45.594;9.294;2023-06-24T04:21:32;99781.94;;;21.48;48.88
18819;BME280;9537;45.594;9.294;2023-06-24T04:22:34;99785.34;;;21.43;48.67
18819;BME280;9537;45.594;9.294;2023-06-24T04:23:36;99780.44;;;21.40;48.13
18819;BME280;9537;45.594;9.294;2023-06-24T04:24:37;99784.19;;;21.39;47.82
18819;BME280;9537;45.594;9.294;2023-06-24T04:25:38;99787.47;;;21.41;48.09
18819;BME280;9537;45.594;9.294;2023-06-24T04:26:39;99792.03;;;21.41;48.13
18819;BME280;9537;45.594;9.294;2023-06-24T04:27:41;99787.31;;;21.48;48.17
18819;BME280;9537;45.594;9.294;2023-06-24T04:28:42;99791.63;;;21.49;48.29
18819;BME280;9537;45.594;9.294;2023-06-24T04:29:43;99793.25;;;21.50;48.20
18819;BME280;9537;45.594;9.294;2023-06-24T04:30:44;99795.94;;;21.50;48.64
18819;BME280;9537;45.594;9.294;2023-06-24T04:31:46;99793.00;;;21.51;48.43
18819;BME280;9537;45.594;9.294;2023-06-24T04:32:46;99799.53;;;21.55;48.09
18819;BME280;9537;45.594;9.294;2023-06-24T04:33:48;99803.84;;;21.56;47.84
18819;BME280;9537;45.594;9.294;2023-06-24T04:34:49;99803.38;;;21.59;48.00
18819;BME280;9537;45.594;9.294;2023-06-24T04:35:51;99809.66;;;21.65;48.08
18819;BME280;9537;45.594;9.294;2023-06-24T04:36:51;99804.84;;;21.67;48.38
18819;BME280;9537;45.594;9.294;2023-06-24T04:37:54;99803.56;;;21.70;48.55
18819;BME280;9537;45.594;9.294;2023-06-24T04:38:55;99804.38;;;21.70;49.42
18819;BME280;9537;45.594;9.294;2023-06-24T04:39:57;99807.72;;;21.61;50.14
18819;BME280;9537;45.594;9.294;2023-06-24T04:40:57;99804.91;;;21.55;50.25
18819;BME280;9537;45.594;9.294;2023-06-24T04:41:59;99802.94;;;21.51;50.51
18819;BME280;9537;45.594;9.294;2023-06-24T04:43:00;99798.63;;;21.50;50.68
18819;BME280;9537;45.594;9.294;2023-06-24T04:44:02;99811.00;;;21.51;50.73
18819;BME280;9537;45.594;9.294;2023-06-24T04:45:03;99802.63;;;21.47;51.00
18819;BME280;9537;45.594;9.294;2023-06-24T04:46:06;99802.84;;;21.46;50.81
18819;BME280;9537;45.594;9.294;2023-06-24T04:47:06;99803.44;;;21.48;50.92
18819;BME280;9537;45.594;9.294;2023-06-24T04:48:08;99804.81;;;21.50;51.14
18819;BME280;9537;45.594;9.294;2023-06-24T04:49:09;99796.75;;;21.50;51.64
18819;BME280;9537;45.594;9.294;2023-06-24T04:50:10;99807.84;;;21.54;51.76
18819;BME280;9537;45.594;9.294;2023-06-24T04:51:11;99800.59;;;21.54;51.66
18819;BME280;9537;45.594;9.294;2023-06-24T04:52:13;99799.78;;;21.54;51.48
18819;BME280;9537;45.594;9.294;2023-06-24T04:53:15;99806.81;;;21.55;51.37
18819;BME280;9537;45.594;9.294;2023-06-24T04:54:18;99797.19;;;21.59;51.07
18819;BME280;9537;45.594;9.294;2023-06-24T04:55:18;99803.16;;;21.61;50.70
18819;BME280;9537;45.594;9.294;2023-06-24T04:56:20;99805.84;;;21.61;50.62
18819;BME280;9537;45.594;9.294;2023-06-24T04:57:25;99801.59;;;21.65;50.56
18819;BME280;9537;45.594;9.294;2023-06-24T04:58:27;99804.84;;;21.67;50.47
18819;BME280;9537;45.594;9.294;2023-06-24T04:59:28;99804.06;;;21.67;50.71
18819;BME280;9537;45.594;9.294;2023-06-24T05:00:29;99804.38;;;21.70;50.55
18819;BME280;9537;45.594;9.294;2023-06-24T05:01:30;99813.72;;;21.68;50.30
18819;BME280;9537;45.594;9.294;2023-06-24T05:02:32;99808.94;;;21.70;50.99
18819;BME280;9537;45.594;9.294;2023-06-24T05:03:32;99809.91;;;21.64;51.99
18819;BME280;9537;45.594;9.294;2023-06-24T05:04:34;99804.06;;;21.67;52.33
18819;BME280;9537;45.594;9.294;2023-06-24T05:05:35;99812.44;;;21.70;52.55
18819;BME280;9537;45.594;9.294;2023-06-24T05:06:36;99813.03;;;21.72;52.45
18819;BME280;9537;45.594;9.294;2023-06-24T05:07:37;99811.13;;;21.73;52.54
18819;BME280;9537;45.594;9.294;2023-06-24T05:08:41;99808.19;;;21.74;52.38
18819;BME280;9537;45.594;9.294;2023-06-24T05:09:41;99821.16;;;21.77;52.43
18819;BME280;9537;45.594;9.294;2023-06-24T05:10:44;99812.38;;;21.82;51.97
18819;BME280;9537;45.594;9.294;2023-06-24T05:11:44;99817.50;;;21.84;51.87
18819;BME280;9537;45.594;9.294;2023-06-24T05:12:46;99821.91;;;21.90;51.82
18819;BME280;9537;45.594;9.294;2023-06-24T05:13:47;99825.41;;;21.90;52.21
18819;BME280;9537;45.594;9.294;2023-06-24T05:14:50;99823.94;;;21.82;52.47
18819;BME280;9537;45.594;9.294;2023-06-24T05:15:51;99833.66;;;21.84;52.35
18819;BME280;9537;45.594;9.294;2023-06-24T05:16:53;99831.28;;;21.87;52.40
18819;BME280;9537;45.594;9.294;2023-06-24T05:17:53;99828.34;;;21.89;52.98
18819;BME280;9537;45.594;9.294;2023-06-24T05:18:55;99833.47;;;21.90;52.83
18819;BME280;9537;45.594;9.294;2023-06-24T05:19:56;99831.38;;;21.92;50.95
18819;BME280;9537;45.594;9.294;2023-06-24T05:20:58;99830.53;;;21.92;50.97
18819;BME280;9537;45.594;9.294;2023-06-24T05:21:59;99834.63;;;21.94;52.04
18819;BME280;9537;45.594;9.294;2023-06-24T05:23:00;99838.94;;;21.95;52.08
18819;BME280;9537;45.594;9.294;2023-06-24T05:24:03;99834.72;;;21.99;53.04
18819;BME280;9537;45.594;9.294;2023-06-24T05:25:05;99819.97;;;22.02;53.61
18819;BME280;9537;45.594;9.294;2023-06-24T05:26:06;99828.84;;;22.02;52.96
18819;BME280;9537;45.594;9.294;2023-06-24T05:27:08;99837.50;;;22.04;53.37
18819;BME280;9537;45.594;9.294;2023-06-24T05:28:09;99834.31;;;22.08;53.36
18819;BME280;9537;45.594;9.294;2023-06-24T05:29:10;99830.06;;;22.12;52.94
18819;BME280;9537;45.594;9.294;2023-06-24T05:30:12;99839.06;;;22.17;52.90
18819;BME280;9537;45.594;9.294;2023-06-24T05:31:14;99837.53;;;22.21;52.67
18819;BME280;9537;45.594;9.294;2023-06-24T05:32:15;99838.09;;;22.23;53.34
18819;BME280;9537;45.594;9.294;2023-06-24T05:33:17;99837.63;;;22.26;53.83
18819;BME280;9537;45.594;9.294;2023-06-24T05:34:18;99841.13;;;22.27;56.11
18819;BME280;9537;45.594;9.294;2023-06-24T05:35:20;99840.84;;;22.29;56.20
18819;BME280;9537;45.594;9.294;2023-06-24T05:36:20;99845.19;;;22.30;55.88
18819;BME280;9537;45.594;9.294;2023-06-24T05:37:22;99841.19;;;22.32;55.46
18819;BME280;9537;45.594;9.294;2023-06-24T05:38:23;99841.50;;;22.36;54.10